createdAt,value
2024-01-17T00:01:50.647Z,951.90
2024-01-17T00:04:17.058Z,951.79
2024-01-17T00:06:43.546Z,951.83
2024-01-17T00:09:09.972Z,951.89
2024-01-17T00:11:36.399Z,951.88
2024-01-17T00:14:02.787Z,951.78
2024-01-17T00:16:29.332Z,951.89
2024-01-17T00:18:55.914Z,951.95
2024-01-17T00:21:22.347Z,951.91
2024-01-17T00:23:48.834Z,951.91
2024-01-17T00:26:15.256Z,952.00
2024-01-17T00:28:41.613Z,952.04
2024-01-17T00:31:08.057Z,952.05
2024-01-17T00:33:34.523Z,952.08
2024-01-17T00:36:01.006Z,952.05
2024-01-17T00:38:27.265Z,951.97
2024-01-17T00:40:53.764Z,952.03
2024-01-17T00:43:20.133Z,951.99
2024-01-17T00:45:46.610Z,952.03
2024-01-17T00:48:13.129Z,952.07
2024-01-17T00:50:39.526Z,952.06
2024-01-17T00:53:05.942Z,951.89
2024-01-17T00:55:32.294Z,951.90
2024-01-17T00:57:58.785Z,951.88
2024-01-17T01:00:25.228Z,951.83
2024-01-17T01:02:51.630Z,951.71
2024-01-17T01:05:17.994Z,951.77
2024-01-17T01:07:44.416Z,951.78
2024-01-17T01:10:10.838Z,951.68
2024-01-17T01:12:37.395Z,951.70
2024-01-17T01:15:04.008Z,951.65
2024-01-17T01:17:30.194Z,951.74
2024-01-17T01:19:56.526Z,951.69
2024-01-17T01:22:23.032Z,951.61
2024-01-17T01:24:49.453Z,951.51
2024-01-17T01:27:16.116Z,951.55
2024-01-17T01:29:42.456Z,951.64
2024-01-17T01:32:08.863Z,951.73
2024-01-17T01:34:35.265Z,951.83
2024-01-17T01:37:01.709Z,951.84
2024-01-17T01:39:28.085Z,951.80
2024-01-17T01:41:54.824Z,951.87
2024-01-17T01:44:21.231Z,951.91
2024-01-17T01:46:47.650Z,951.91
2024-01-17T01:49:14.231Z,951.95
2024-01-17T01:51:40.541Z,952.00
2024-01-17T01:54:06.936Z,951.90
2024-01-17T01:56:33.478Z,951.86
2024-01-17T01:58:59.736Z,951.92
2024-01-17T02:01:26.253Z,951.86
2024-01-17T02:03:52.648Z,951.85
2024-01-17T02:06:19.186Z,951.86
2024-01-17T02:08:45.587Z,951.82
2024-01-17T02:11:11.993Z,951.75
2024-01-17T02:13:38.366Z,951.72
2024-01-17T02:16:04.844Z,951.68
2024-01-17T02:18:31.328Z,951.69
2024-01-17T02:20:57.822Z,951.74
2024-01-17T02:23:24.270Z,951.67
2024-01-17T02:25:50.524Z,951.63
2024-01-17T02:28:16.911Z,951.68
2024-01-17T02:30:43.581Z,951.60
2024-01-17T02:33:09.986Z,951.60
2024-01-17T02:35:36.340Z,951.61
2024-01-17T02:38:02.756Z,951.52
2024-01-17T02:40:29.179Z,951.44
2024-01-17T02:42:55.755Z,951.54
2024-01-17T02:45:22.246Z,951.51
2024-01-17T02:47:48.707Z,951.51
2024-01-17T02:50:15.124Z,951.54
2024-01-17T02:52:41.472Z,951.52
2024-01-17T02:55:07.994Z,951.53
2024-01-17T02:57:34.343Z,951.60
2024-01-17T03:00:00.780Z,951.58
2024-01-17T03:02:27.201Z,951.48
2024-01-17T03:04:53.656Z,951.57
2024-01-17T03:07:20.066Z,951.60
2024-01-17T03:09:46.540Z,951.61
2024-01-17T03:12:12.973Z,951.62
2024-01-17T03:14:39.275Z,951.53
2024-01-17T03:17:05.686Z,951.61
2024-01-17T03:19:32.194Z,951.59
2024-01-17T03:21:58.475Z,951.66
2024-01-17T03:24:24.988Z,951.56
2024-01-17T03:26:51.431Z,951.49
2024-01-17T03:29:17.984Z,951.47
2024-01-17T03:31:44.496Z,951.48
2024-01-17T03:34:11.105Z,951.51
2024-01-17T03:36:37.399Z,951.50
2024-01-17T03:39:04.028Z,951.45
2024-01-17T03:41:30.353Z,951.45
2024-01-17T03:43:56.776Z,951.45
2024-01-17T03:46:23.198Z,951.37
2024-01-17T03:48:49.951Z,951.43
2024-01-17T03:51:16.184Z,951.45
2024-01-17T03:53:42.613Z,951.53
2024-01-17T03:56:09.143Z,951.59
2024-01-17T03:58:35.587Z,951.61
2024-01-17T04:01:02.042Z,951.74
2024-01-17T04:03:28.547Z,951.84
2024-01-17T04:05:54.934Z,951.90
2024-01-17T04:08:21.301Z,951.96
2024-01-17T04:10:47.740Z,951.94
2024-01-17T04:13:14.142Z,951.91
2024-01-17T04:15:40.482Z,951.84
2024-01-17T04:18:07.066Z,951.77
2024-01-17T04:20:33.413Z,951.78
2024-01-17T04:22:59.794Z,951.72
2024-01-17T04:25:26.236Z,951.74
2024-01-17T04:27:52.667Z,951.82
2024-01-17T04:30:19.084Z,951.85
2024-01-17T04:32:45.690Z,951.80
2024-01-17T04:35:11.963Z,951.90
2024-01-17T04:37:38.385Z,951.90
2024-01-17T04:40:04.752Z,951.99
2024-01-17T04:42:31.282Z,951.98
2024-01-17T04:44:57.698Z,951.90
2024-01-17T04:47:24.107Z,951.86
2024-01-17T04:49:50.769Z,951.84
2024-01-17T04:52:16.878Z,951.95
2024-01-17T04:54:43.231Z,951.88
2024-01-17T04:57:09.774Z,951.95
2024-01-17T04:59:36.167Z,952.00
2024-01-17T05:02:02.611Z,952.11
2024-01-17T05:04:29.168Z,952.21
2024-01-17T05:06:55.557Z,952.25
2024-01-17T05:09:21.830Z,952.25
2024-01-17T05:11:48.327Z,952.27
2024-01-17T05:14:14.773Z,952.24
2024-01-17T05:16:41.198Z,952.19
2024-01-17T05:19:07.663Z,952.07
2024-01-17T05:21:34.086Z,952.04
2024-01-17T05:24:00.765Z,951.98
2024-01-17T05:26:27.114Z,951.78
2024-01-17T05:28:53.585Z,951.93
2024-01-17T05:31:20.170Z,952.20
2024-01-17T05:33:46.527Z,952.19
2024-01-17T05:36:12.898Z,952.01
2024-01-17T05:38:39.166Z,952.01
2024-01-17T05:41:05.639Z,951.96
2024-01-17T05:43:32.029Z,951.89
2024-01-17T05:45:58.502Z,951.88
2024-01-17T05:48:25.052Z,952.00
2024-01-17T05:50:51.378Z,952.05
2024-01-17T05:53:17.733Z,952.13
2024-01-17T05:55:44.250Z,952.17
2024-01-17T05:58:10.683Z,952.26
2024-01-17T06:00:37.144Z,952.29
2024-01-17T06:03:03.620Z,952.28
2024-01-17T06:05:30.014Z,952.18
2024-01-17T06:07:56.348Z,952.14
2024-01-17T06:10:22.951Z,951.96
2024-01-17T06:12:49.371Z,951.83
2024-01-17T06:15:15.835Z,951.72
2024-01-17T06:17:42.307Z,951.81
2024-01-17T06:20:08.716Z,951.96
2024-01-17T06:22:35.026Z,951.95
2024-01-17T06:25:01.756Z,951.96
2024-01-17T06:27:28.186Z,951.98
2024-01-17T06:29:54.661Z,951.97
2024-01-17T06:32:21.210Z,951.95
2024-01-17T06:34:48.801Z,952.11
2024-01-17T06:37:15.115Z,952.26
2024-01-17T06:39:41.572Z,952.32
2024-01-17T06:42:08.148Z,952.29
2024-01-17T06:44:34.904Z,952.19
2024-01-17T06:47:05.829Z,952.13
2024-01-17T06:49:32.338Z,952.08
2024-01-17T06:51:58.616Z,952.02
2024-01-17T06:54:25.116Z,952.17
2024-01-17T06:56:51.564Z,952.27
2024-01-17T06:59:17.961Z,952.25
2024-01-17T07:01:44.349Z,952.01
2024-01-17T07:04:10.866Z,951.99
2024-01-17T07:06:37.304Z,952.07
2024-01-17T07:09:03.758Z,952.05
2024-01-17T07:11:30.144Z,951.93
2024-01-17T07:13:56.706Z,951.96
2024-01-17T07:16:23.060Z,951.93
2024-01-17T07:18:49.672Z,951.92
2024-01-17T07:21:17.036Z,951.93
2024-01-17T07:23:43.377Z,951.91
2024-01-17T07:26:09.756Z,952.12
2024-01-17T07:28:36.177Z,952.27
2024-01-17T07:31:02.600Z,952.22
2024-01-17T07:33:29.152Z,952.24
2024-01-17T07:35:55.395Z,952.27
2024-01-17T07:38:21.846Z,952.30
2024-01-17T07:40:48.200Z,952.26
2024-01-17T07:43:14.682Z,952.25
2024-01-17T07:45:41.280Z,952.23
2024-01-17T07:48:07.552Z,952.17
2024-01-17T07:50:33.853Z,952.19
2024-01-17T07:53:00.296Z,952.24
2024-01-17T07:55:26.645Z,952.33
2024-01-17T07:57:53.172Z,952.18
2024-01-17T08:00:19.708Z,952.00
2024-01-17T08:02:46.117Z,951.89
2024-01-17T08:05:12.403Z,952.07
2024-01-17T08:07:38.853Z,952.10
2024-01-17T08:10:08.073Z,952.09
2024-01-17T08:12:31.768Z,952.13
2024-01-17T08:14:58.136Z,952.18
2024-01-17T08:17:24.706Z,952.17
2024-01-17T08:19:51.129Z,952.12
2024-01-17T08:22:17.417Z,952.05
2024-01-17T08:24:43.814Z,952.28
2024-01-17T08:27:10.262Z,952.41
2024-01-17T08:29:36.630Z,952.36
2024-01-17T08:32:03.018Z,952.11
2024-01-17T08:34:29.447Z,952.06
2024-01-17T08:36:55.947Z,952.09
2024-01-17T08:39:22.438Z,952.16
2024-01-17T08:41:48.948Z,952.22
2024-01-17T08:44:15.293Z,952.37
2024-01-17T08:46:44.167Z,952.47
2024-01-17T08:49:08.632Z,952.32
2024-01-17T08:51:35.109Z,952.18
2024-01-17T08:54:01.595Z,952.15
2024-01-17T08:56:27.974Z,952.21
2024-01-17T08:58:54.368Z,952.34
2024-01-17T09:01:22.960Z,952.33
2024-01-17T09:03:47.268Z,952.24
2024-01-17T09:06:13.681Z,952.21
2024-01-17T09:08:40.220Z,952.24
2024-01-17T09:11:06.458Z,952.19
2024-01-17T09:13:32.818Z,952.13
2024-01-17T09:15:59.325Z,952.03
2024-01-17T09:18:25.845Z,951.92
2024-01-17T09:20:52.218Z,951.83
2024-01-17T09:23:18.626Z,951.95
2024-01-17T09:25:45.120Z,952.10
2024-01-17T09:28:11.496Z,952.11
2024-01-17T09:30:38.246Z,951.95
2024-01-17T09:33:04.859Z,951.67
2024-01-17T09:35:31.075Z,951.69
2024-01-17T09:37:57.549Z,951.76
2024-01-17T09:40:24.174Z,951.76
2024-01-17T09:42:53.654Z,951.66
2024-01-17T09:45:16.969Z,951.69
2024-01-17T09:47:43.341Z,951.56
2024-01-17T09:50:09.893Z,951.53
2024-01-17T09:52:36.236Z,951.51
2024-01-17T09:55:03.043Z,951.46
2024-01-17T09:57:29.382Z,951.43
2024-01-17T09:59:55.904Z,951.36
2024-01-17T10:02:22.274Z,951.40
2024-01-17T10:04:48.678Z,951.39
2024-01-17T10:07:15.151Z,951.44
2024-01-17T10:09:41.733Z,951.36
2024-01-17T10:12:08.294Z,951.37
2024-01-17T10:14:34.801Z,951.35
2024-01-17T10:17:01.103Z,951.29
2024-01-17T10:19:27.741Z,951.28
2024-01-17T10:21:53.932Z,951.15
2024-01-17T10:24:20.456Z,951.33
2024-01-17T10:26:46.931Z,951.30
2024-01-17T10:29:13.460Z,951.11
2024-01-17T10:31:39.966Z,951.13
2024-01-17T10:34:06.548Z,951.03
2024-01-17T10:36:32.761Z,950.96
2024-01-17T10:38:59.330Z,950.81
2024-01-17T10:41:25.650Z,950.76
2024-01-17T10:43:52.142Z,950.78
2024-01-17T10:46:18.579Z,950.72
2024-01-17T10:48:45.132Z,950.71
2024-01-17T10:51:11.477Z,950.60
2024-01-17T10:53:48.277Z,950.57
2024-01-17T10:56:04.315Z,950.47
2024-01-17T10:58:30.736Z,950.54
2024-01-17T11:00:57.138Z,950.45
2024-01-17T11:03:25.778Z,950.36
2024-01-17T11:05:52.262Z,950.29
2024-01-17T11:08:18.545Z,950.27
2024-01-17T11:10:44.975Z,950.13
2024-01-17T11:13:11.405Z,950.04
2024-01-17T11:15:37.881Z,949.91
2024-01-17T11:18:04.274Z,949.96
2024-01-17T11:20:32.848Z,950.08
2024-01-17T11:22:57.166Z,950.18
2024-01-17T11:25:23.704Z,950.18
2024-01-17T11:27:50.015Z,950.14
2024-01-17T11:30:16.630Z,950.12
2024-01-17T11:32:43.139Z,950.12
2024-01-17T11:35:09.393Z,950.03
2024-01-17T11:37:35.912Z,950.02
2024-01-17T11:40:02.283Z,949.97
2024-01-17T11:42:28.628Z,949.93
2024-01-17T11:45:05.374Z,949.95
2024-01-17T11:47:21.770Z,949.98
2024-01-17T11:49:48.134Z,949.90
2024-01-17T11:52:14.604Z,949.86
2024-01-17T11:54:41.079Z,949.84
2024-01-17T11:57:07.493Z,949.72
2024-01-17T11:59:33.998Z,949.77
2024-01-17T12:02:00.309Z,949.77
2024-01-17T12:04:26.687Z,949.82
2024-01-17T12:06:53.284Z,949.68
2024-01-17T12:09:23.019Z,949.70
2024-01-17T12:11:46.122Z,949.77
2024-01-17T12:14:12.644Z,949.74
2024-01-17T12:16:39.052Z,949.79
2024-01-17T12:19:05.700Z,949.69
2024-01-17T12:21:32.144Z,949.60
2024-01-17T12:23:58.408Z,949.53
2024-01-17T12:26:24.798Z,949.51
2024-01-17T12:28:51.345Z,949.45
2024-01-17T12:31:17.700Z,949.46
2024-01-17T12:33:44.271Z,949.36
2024-01-17T12:36:10.710Z,949.36
2024-01-17T12:38:37.159Z,949.42
2024-01-17T12:41:03.502Z,949.42
2024-01-17T12:43:29.932Z,949.34
2024-01-17T12:45:56.367Z,949.26
2024-01-17T12:48:23.083Z,949.27
2024-01-17T12:50:49.533Z,949.16
2024-01-17T12:53:15.959Z,949.17
2024-01-17T12:55:42.333Z,948.93
2024-01-17T12:58:08.839Z,949.01
2024-01-17T13:00:37.794Z,948.91
2024-01-17T13:03:04.244Z,948.83
2024-01-17T13:05:30.561Z,948.78
2024-01-17T13:07:57.031Z,948.79
2024-01-17T13:10:23.401Z,948.85
2024-01-17T13:12:49.791Z,948.73
2024-01-17T13:15:16.305Z,948.60
2024-01-17T13:17:42.728Z,948.55
2024-01-17T13:20:09.042Z,948.61
2024-01-17T13:22:35.525Z,948.68
2024-01-17T13:25:02.274Z,948.69
2024-01-17T13:27:28.702Z,948.63
2024-01-17T13:29:55.158Z,948.53
2024-01-17T13:32:21.689Z,948.63
2024-01-17T13:34:48.182Z,948.60
2024-01-17T13:37:14.487Z,948.62
2024-01-17T13:39:40.960Z,948.57
2024-01-17T13:42:07.422Z,948.54
2024-01-17T13:44:33.743Z,948.65
2024-01-17T13:47:00.357Z,948.66
2024-01-17T13:49:27.194Z,948.64
2024-01-17T13:51:55.091Z,948.61
2024-01-17T13:54:20.739Z,948.67
2024-01-17T13:56:47.168Z,948.59
2024-01-17T13:59:13.489Z,948.56
2024-01-17T14:01:39.997Z,948.58
2024-01-17T14:04:06.542Z,948.56
2024-01-17T14:06:33.036Z,948.60
2024-01-17T14:08:59.407Z,948.57
2024-01-17T14:11:25.823Z,948.66
2024-01-17T14:13:52.291Z,948.58
2024-01-17T14:16:18.838Z,948.56
2024-01-17T14:18:45.211Z,948.60
2024-01-17T14:21:12.684Z,948.68
2024-01-17T14:23:38.165Z,948.66
2024-01-17T14:26:04.537Z,948.63
2024-01-17T14:28:30.954Z,948.62
2024-01-17T14:30:57.384Z,948.48
2024-01-17T14:33:24.017Z,948.53
2024-01-17T14:35:50.262Z,948.52
2024-01-17T14:38:19.229Z,948.43
2024-01-17T14:40:43.341Z,948.38
2024-01-17T14:43:09.689Z,948.49
2024-01-17T14:45:36.112Z,948.57
2024-01-17T14:48:02.739Z,948.57
2024-01-17T14:50:28.963Z,948.62
2024-01-17T14:52:55.347Z,948.60
2024-01-17T14:55:21.827Z,948.55
2024-01-17T14:57:48.255Z,948.51
2024-01-17T15:00:14.734Z,948.50
2024-01-17T15:02:41.181Z,948.49
2024-01-17T15:05:10.508Z,948.51
2024-01-17T15:07:34.202Z,948.47
2024-01-17T15:10:00.787Z,948.59
2024-01-17T15:12:27.093Z,948.77
2024-01-17T15:14:53.516Z,948.76
2024-01-17T15:17:19.846Z,948.64
2024-01-17T15:19:46.398Z,948.66
2024-01-17T15:22:12.691Z,948.78
2024-01-17T15:24:39.140Z,948.47
2024-01-17T15:27:05.541Z,948.59
2024-01-17T15:29:32.004Z,948.59
2024-01-17T15:31:58.406Z,948.54
2024-01-17T15:34:24.958Z,948.69
2024-01-17T15:36:51.215Z,948.63
2024-01-17T15:39:17.838Z,948.66
2024-01-17T15:41:44.154Z,948.61
2024-01-17T15:44:10.898Z,948.72
2024-01-17T15:46:37.313Z,948.61
2024-01-17T15:49:04.026Z,948.66
2024-01-17T15:51:30.335Z,948.70
2024-01-17T15:53:56.699Z,948.66
2024-01-17T15:56:23.052Z,948.63
2024-01-17T15:58:49.603Z,948.73
2024-01-17T16:01:16.068Z,948.62
2024-01-17T16:03:42.411Z,948.71
2024-01-17T16:06:08.865Z,948.72
2024-01-17T16:08:35.235Z,948.59
2024-01-17T16:11:01.772Z,948.50
2024-01-17T16:13:28.106Z,948.48
2024-01-17T16:15:54.534Z,948.35
2024-01-17T16:18:21.055Z,948.34
2024-01-17T16:20:47.427Z,948.35
2024-01-17T16:23:13.837Z,948.40
2024-01-17T16:25:40.274Z,948.39
2024-01-17T16:28:06.892Z,948.23
2024-01-17T16:30:33.313Z,948.33
2024-01-17T16:33:00.024Z,948.30
2024-01-17T16:35:26.197Z,948.22
2024-01-17T16:37:52.733Z,948.29
2024-01-17T16:40:19.028Z,948.36
2024-01-17T16:42:45.803Z,948.27
2024-01-17T16:45:12.287Z,948.28
2024-01-17T16:47:38.736Z,948.34
2024-01-17T16:50:05.109Z,948.42
2024-01-17T16:52:31.690Z,948.39
2024-01-17T16:54:58.054Z,948.37
2024-01-17T16:57:24.554Z,948.42
2024-01-17T16:59:50.958Z,948.31
2024-01-17T17:02:17.936Z,948.27
2024-01-17T17:04:43.863Z,948.27
2024-01-17T17:07:10.125Z,948.37
2024-01-17T17:09:36.564Z,948.12
2024-01-17T17:12:03.001Z,948.33
2024-01-17T17:14:29.422Z,948.48
2024-01-17T17:16:55.882Z,948.14
2024-01-17T17:19:22.347Z,948.29
2024-01-17T17:21:48.713Z,948.48
2024-01-17T17:24:15.152Z,948.34
2024-01-17T17:26:41.654Z,948.37
2024-01-17T17:29:08.007Z,948.21
2024-01-17T17:31:34.465Z,948.38
2024-01-17T17:34:01.049Z,948.28
2024-01-17T17:36:27.388Z,948.22
2024-01-17T17:38:53.719Z,948.18
2024-01-17T17:41:20.122Z,947.98
2024-01-17T17:43:46.467Z,948.13
2024-01-17T17:46:12.943Z,948.00
2024-01-17T17:48:39.639Z,947.91
2024-01-17T17:51:05.956Z,948.13
2024-01-17T17:53:32.274Z,948.02
2024-01-17T17:55:58.787Z,947.77
2024-01-17T17:58:25.213Z,947.81
2024-01-17T18:00:51.987Z,948.12
2024-01-17T18:03:18.405Z,948.16
2024-01-17T18:05:44.920Z,948.07
2024-01-17T18:08:11.261Z,948.09
2024-01-17T18:10:37.658Z,948.09
2024-01-17T18:13:04.133Z,948.09
2024-01-17T18:15:30.772Z,948.02
2024-01-17T18:17:58.358Z,948.05
2024-01-17T18:20:24.681Z,947.90
2024-01-17T18:22:51.096Z,947.88
2024-01-17T18:25:17.636Z,947.89
2024-01-17T18:27:44.068Z,947.89
2024-01-17T18:30:10.649Z,947.79
2024-01-17T18:32:36.980Z,947.78
2024-01-17T18:35:03.505Z,947.75
2024-01-17T18:37:29.815Z,947.84
2024-01-17T18:39:56.339Z,947.81
2024-01-17T18:42:23.040Z,948.01
2024-01-17T18:44:49.537Z,947.94
2024-01-17T18:47:15.868Z,947.80
2024-01-17T18:49:42.387Z,947.95
2024-01-17T18:52:11.140Z,947.93
2024-01-17T18:54:37.588Z,947.76
2024-01-17T18:57:04.033Z,947.73
2024-01-17T18:59:30.490Z,947.84
2024-01-17T19:01:56.996Z,947.82
2024-01-17T19:04:23.336Z,947.83
2024-01-17T19:06:49.759Z,947.79
2024-01-17T19:09:16.470Z,947.69
2024-01-17T19:11:42.973Z,947.67
2024-01-17T19:14:09.374Z,947.48
2024-01-17T19:16:35.750Z,947.42
2024-01-17T19:19:02.282Z,947.51
2024-01-17T19:21:28.594Z,947.53
2024-01-17T19:23:57.254Z,947.56
2024-01-17T19:26:23.678Z,947.45
2024-01-17T19:28:50.227Z,947.34
2024-01-17T19:31:16.579Z,947.55
2024-01-17T19:33:43.295Z,947.49
2024-01-17T19:36:09.579Z,947.46
2024-01-17T19:38:35.972Z,947.57
2024-01-17T19:41:02.306Z,947.57
2024-01-17T19:43:28.811Z,947.42
2024-01-17T19:45:55.163Z,947.37
2024-01-17T19:48:23.053Z,947.44
2024-01-17T19:50:48.125Z,947.38
2024-01-17T19:53:14.551Z,947.58
2024-01-17T19:55:41.117Z,947.46
2024-01-17T19:58:07.624Z,947.50
2024-01-17T20:00:34.082Z,947.55
2024-01-17T20:03:00.563Z,947.44
2024-01-17T20:05:26.919Z,947.38
2024-01-17T20:07:53.361Z,947.54
2024-01-17T20:10:19.730Z,947.46
2024-01-17T20:12:46.226Z,947.45
2024-01-17T20:15:12.697Z,947.53
2024-01-17T20:17:39.086Z,947.43
2024-01-17T20:20:05.461Z,947.44
2024-01-17T20:22:32.978Z,947.49
2024-01-17T20:24:59.521Z,947.49
2024-01-17T20:27:26.023Z,947.51
2024-01-17T20:29:52.538Z,947.52
2024-01-17T20:32:20.448Z,947.44
2024-01-17T20:34:47.054Z,947.33
2024-01-17T20:37:13.302Z,947.39
2024-01-17T20:39:39.844Z,947.30
2024-01-17T20:42:06.320Z,947.29
2024-01-17T20:44:32.716Z,947.28
2024-01-17T20:46:59.142Z,947.35
2024-01-17T20:49:25.694Z,947.41
2024-01-17T20:51:52.136Z,947.40
2024-01-17T20:54:18.440Z,947.37
2024-01-17T20:56:44.841Z,947.40
2024-01-17T20:59:11.191Z,947.40
2024-01-17T21:01:37.748Z,947.42
2024-01-17T21:04:04.199Z,947.28
2024-01-17T21:06:30.651Z,947.31
2024-01-17T21:08:56.988Z,947.32
2024-01-17T21:11:23.482Z,947.38
2024-01-17T21:13:49.893Z,947.44
2024-01-17T21:16:16.350Z,947.46
2024-01-17T21:18:42.906Z,947.47
2024-01-17T21:21:09.224Z,947.39
2024-01-17T21:23:35.647Z,947.38
2024-01-17T21:26:02.321Z,947.46
2024-01-17T21:28:28.518Z,947.46
2024-01-17T21:30:55.064Z,947.49
2024-01-17T21:33:21.610Z,947.43
2024-01-17T21:35:47.956Z,947.42
2024-01-17T21:38:14.338Z,947.43
2024-01-17T21:40:40.880Z,947.47
2024-01-17T21:43:07.305Z,947.35
2024-01-17T21:45:33.768Z,947.32
2024-01-17T21:48:00.314Z,947.39
2024-01-17T21:50:26.698Z,947.34
2024-01-17T21:52:53.146Z,947.29
2024-01-17T21:55:19.568Z,947.20
2024-01-17T21:57:46.016Z,947.31
2024-01-17T22:00:12.386Z,947.34
2024-01-17T22:02:38.872Z,947.24
2024-01-17T22:05:05.285Z,947.28
2024-01-17T22:07:31.791Z,947.25
2024-01-17T22:09:58.728Z,947.19
2024-01-17T22:12:24.551Z,947.25
2024-01-17T22:14:50.916Z,947.17
2024-01-17T22:17:17.259Z,947.09
2024-01-17T22:19:43.763Z,947.10
2024-01-17T22:22:10.050Z,946.92
2024-01-17T22:24:36.514Z,946.79
2024-01-17T22:27:02.946Z,946.90
2024-01-17T22:29:29.262Z,946.93
2024-01-17T22:31:55.776Z,946.85
2024-01-17T22:34:22.242Z,946.86
2024-01-17T22:36:48.617Z,946.92
2024-01-17T22:39:15.087Z,946.82
2024-01-17T22:41:41.490Z,946.68
2024-01-17T22:44:07.905Z,946.71
2024-01-17T22:46:34.371Z,946.73
2024-01-17T22:49:00.913Z,946.66
2024-01-17T22:51:27.281Z,946.65
2024-01-17T22:53:53.618Z,946.52
2024-01-17T22:56:20.095Z,946.55
2024-01-17T22:58:46.447Z,946.51
2024-01-17T23:01:13.108Z,946.45
2024-01-17T23:03:39.677Z,946.46
2024-01-17T23:06:06.033Z,946.40
2024-01-17T23:08:32.298Z,946.44
2024-01-17T23:11:11.646Z,946.45
2024-01-17T23:13:28.670Z,946.33
2024-01-17T23:15:53.892Z,946.21
2024-01-17T23:18:20.341Z,946.24
2024-01-17T23:20:47.811Z,946.28
2024-01-17T23:23:14.193Z,946.26
2024-01-17T23:25:40.885Z,946.24
2024-01-17T23:28:07.307Z,946.24
2024-01-17T23:30:33.759Z,946.29
2024-01-17T23:33:00.197Z,946.18
2024-01-17T23:35:26.481Z,946.15
2024-01-17T23:37:52.857Z,946.07
2024-01-17T23:40:19.265Z,946.19
2024-01-17T23:42:45.722Z,946.31
2024-01-17T23:45:12.260Z,946.15
2024-01-17T23:47:38.683Z,946.26
2024-01-17T23:50:05.171Z,946.26
2024-01-17T23:52:31.623Z,946.14
2024-01-17T23:54:57.919Z,946.20
2024-01-17T23:57:24.305Z,946.14
2024-01-17T23:59:50.736Z,946.26
